Time;durP1;ratioP1;P1;durP2;ratioP2;P2;SDS_P1;SDS_P2;PMS_P1;PMS_P2;Temp;Humidity;BMP_temperature;BMP_pressure;BME280_temperature;BME280_humidity;BME280_pressure;Samples;Min_cycle;Max_cycle;Signal;HPM_P1;HPM_P2
2023/05/16 00:02:11;;;;;;;9.10;2.70;;;;;;;;;;4992006;28;20203;-68
2023/05/16 00:04:36;;;;;;;8.13;2.03;;;;;;;;;;4991130;28;20183;-68
2023/05/16 00:07:01;;;;;;;9.27;2.27;;;;;;;;;;4991577;28;20723;-69
2023/05/16 00:09:27;;;;;;;14.57;2.67;;;;;;;;;;4991488;28;20180;-69
2023/05/16 00:11:52;;;;;;;7.97;2.13;;;;;;;;;;5004606;22;20307;-74
2023/05/16 00:14:18;;;;;;;15.73;3.20;;;;;;;;;;5013127;28;20275;-74
2023/05/16 00:16:44;;;;;;;6.07;2.13;;;;;;;;;;5016274;28;20182;-74
2023/05/16 00:19:09;;;;;;;6.40;2.27;;;;;;;;;;5011166;28;20187;-74
2023/05/16 00:21:35;;;;;;;6.27;1.93;;;;;;;;;;5015379;28;20183;-74
2023/05/16 00:24:00;;;;;;;9.23;2.33;;;;;;;;;;5004409;28;20194;-74
2023/05/16 00:26:26;;;;;;;6.40;1.77;;;;;;;;;;5012388;28;20691;-74
2023/05/16 00:28:51;;;;;;;16.87;2.13;;;;;;;;;;5016488;28;20210;-75
2023/05/16 00:31:16;;;;;;;14.07;2.73;;;;;;;;;;5013696;28;20171;-74
2023/05/16 00:33:42;;;;;;;15.20;3.17;;;;;;;;;;5009550;28;20613;-74
2023/05/16 00:36:07;;;;;;;6.23;1.67;;;;;;;;;;5005088;28;20641;-74
2023/05/16 00:38:32;;;;;;;6.83;2.00;;;;;;;;;;5004114;28;20598;-74
2023/05/16 00:40:57;;;;;;;5.47;1.77;;;;;;;;;;5004643;28;20562;-74
2023/05/16 00:43:23;;;;;;;8.43;2.00;;;;;;;;;;5001735;28;20225;-74
2023/05/16 00:45:48;;;;;;;6.80;1.63;;;;;;;;;;5003280;28;20684;-74
2023/05/16 00:48:13;;;;;;;9.87;3.30;;;;;;;;;;5005430;28;20182;-74
2023/05/16 00:50:39;;;;;;;11.57;2.10;;;;;;;;;;5002179;28;20215;-74
2023/05/16 00:53:04;;;;;;;7.87;1.97;;;;;;;;;;5003555;28;20617;-74
2023/05/16 00:55:30;;;;;;;7.17;2.63;;;;;;;;;;5003372;28;20175;-74
2023/05/16 00:57:56;;;;;;;7.00;2.50;;;;;;;;;;5002727;28;22134;-74
2023/05/16 01:00:22;;;;;;;9.37;2.53;;;;;;;;;;5004790;28;20194;-74
2023/05/16 01:02:47;;;;;;;13.20;2.17;;;;;;;;;;5003349;28;20194;-74
2023/05/16 01:05:12;;;;;;;9.60;1.97;;;;;;;;;;5003991;28;20218;-74
2023/05/16 01:07:38;;;;;;;8.23;2.87;;;;;;;;;;5002988;28;20203;-74
2023/05/16 01:10:04;;;;;;;8.37;2.27;;;;;;;;;;5004441;28;20171;-74
2023/05/16 01:12:38;;;;;;;11.27;3.20;;;;;;;;;;5005379;28;22329;-74
2023/05/16 01:15:07;;;;;;;6.37;2.03;;;;;;;;;;5012930;28;20728;-74
2023/05/16 01:17:40;;;;;;;10.00;2.50;;;;;;;;;;5011193;28;20675;-75
2023/05/16 01:20:14;;;;;;;8.40;1.77;;;;;;;;;;5010051;28;20679;-74
2023/05/16 01:22:46;;;;;;;9.50;2.37;;;;;;;;;;5001345;28;20249;-75
2023/05/16 01:25:20;;;;;;;3.10;1.67;;;;;;;;;;4986386;28;20681;-74
2023/05/16 01:27:46;;;;;;;9.23;2.17;;;;;;;;;;4987531;28;22040;-74
2023/05/16 01:30:16;;;;;;;6.40;1.93;;;;;;;;;;4989208;28;20179;-75
2023/05/16 01:32:41;;;;;;;6.97;2.33;;;;;;;;;;4990548;28;20201;-75
2023/05/16 01:35:09;;;;;;;6.83;2.07;;;;;;;;;;4988244;28;20566;-74
2023/05/16 01:37:40;;;;;;;9.53;2.57;;;;;;;;;;4990437;28;20201;-74
2023/05/16 01:40:09;;;;;;;8.67;3.37;;;;;;;;;;4992374;28;20213;-74
2023/05/16 01:42:37;;;;;;;9.40;2.40;;;;;;;;;;4988863;28;20256;-74
2023/05/16 01:45:08;;;;;;;6.60;1.60;;;;;;;;;;4995446;28;20183;-74
2023/05/16 01:47:35;;;;;;;4.13;2.30;;;;;;;;;;4995781;28;20627;-74
2023/05/16 01:50:13;;;;;;;8.57;2.47;;;;;;;;;;5002681;28;20186;-74
2023/05/16 01:52:49;;;;;;;6.67;2.37;;;;;;;;;;4995988;28;20203;-74
2023/05/16 01:55:15;;;;;;;5.00;1.73;;;;;;;;;;4994752;28;20249;-75
2023/05/16 01:57:41;;;;;;;5.70;2.43;;;;;;;;;;4989788;28;20194;-74
2023/05/16 02:00:07;;;;;;;9.67;2.27;;;;;;;;;;4990468;28;20252;-75
2023/05/16 02:02:32;;;;;;;5.67;2.77;;;;;;;;;;4991518;28;20206;-75
2023/05/16 02:04:57;;;;;;;7.20;3.00;;;;;;;;;;4994952;28;20851;-75
2023/05/16 02:07:23;;;;;;;10.60;2.80;;;;;;;;;;4990705;28;20251;-75
2023/05/16 02:09:48;;;;;;;10.40;2.07;;;;;;;;;;4991702;28;20182;-74
2023/05/16 02:12:13;;;;;;;5.10;2.30;;;;;;;;;;4990309;28;20392;-75
2023/05/16 02:14:38;;;;;;;16.00;2.30;;;;;;;;;;4990361;28;20175;-75
2023/05/16 02:17:04;;;;;;;4.53;2.07;;;;;;;;;;4990459;28;20732;-75
2023/05/16 02:19:29;;;;;;;6.93;2.53;;;;;;;;;;4990745;28;20197;-75
2023/05/16 02:21:55;;;;;;;6.97;2.10;;;;;;;;;;4989338;28;20202;-75
2023/05/16 02:24:20;;;;;;;9.47;2.57;;;;;;;;;;4993418;28;20621;-75
2023/05/16 02:26:46;;;;;;;8.13;3.20;;;;;;;;;;5010204;28;20226;-75
2023/05/16 02:29:11;;;;;;;11.43;2.40;;;;;;;;;;5009387;28;20178;-75
2023/05/16 02:31:36;;;;;;;8.30;2.73;;;;;;;;;;5010989;28;20194;-75
2023/05/16 02:34:01;;;;;;;8.93;2.07;;;;;;;;;;4993719;28;20612;-75
2023/05/16 02:36:27;;;;;;;7.90;1.73;;;;;;;;;;4992784;28;20595;-75
2023/05/16 02:38:52;;;;;;;4.53;2.00;;;;;;;;;;4989169;28;20221;-75
2023/05/16 02:41:17;;;;;;;10.97;2.23;;;;;;;;;;4989693;28;21825;-74
2023/05/16 02:43:43;;;;;;;10.10;2.07;;;;;;;;;;4987637;28;20236;-75
2023/05/16 02:46:21;;;;;;;4.47;2.63;;;;;;;;;;4992587;28;20250;-75
2023/05/16 02:48:46;;;;;;;8.93;3.20;;;;;;;;;;4986426;28;20187;-75
2023/05/16 02:51:12;;;;;;;6.07;2.40;;;;;;;;;;4989533;28;20665;-75
2023/05/16 02:53:37;;;;;;;7.80;2.20;;;;;;;;;;4988130;28;20210;-75
2023/05/16 02:56:05;;;;;;;6.43;2.37;;;;;;;;;;4988676;28;20270;-74
2023/05/16 02:58:31;;;;;;;13.00;3.23;;;;;;;;;;4987492;28;20254;-74
2023/05/16 03:00:57;;;;;;;8.40;2.33;;;;;;;;;;4989108;28;20208;-75
2023/05/16 03:03:22;;;;;;;10.07;2.30;;;;;;;;;;4990037;28;20684;-75
2023/05/16 03:05:47;;;;;;;3.93;1.87;;;;;;;;;;4990752;28;20245;-74
2023/05/16 03:08:12;;;;;;;11.40;2.30;;;;;;;;;;4989414;28;20189;-74
2023/05/16 03:10:37;;;;;;;5.60;2.13;;;;;;;;;;4990037;28;20185;-74
2023/05/16 03:13:03;;;;;;;8.10;2.00;;;;;;;;;;4988046;28;20233;-75
2023/05/16 03:15:28;;;;;;;4.10;2.00;;;;;;;;;;4987746;28;20194;-75
2023/05/16 03:17:54;;;;;;;7.73;2.07;;;;;;;;;;5001402;28;20234;-75
2023/05/16 03:20:20;;;;;;;7.83;2.60;;;;;;;;;;4989034;28;20755;-75
2023/05/16 03:22:45;;;;;;;8.87;2.53;;;;;;;;;;4989851;28;20218;-75
2023/05/16 03:25:10;;;;;;;4.37;2.60;;;;;;;;;;4991537;28;20232;-74
2023/05/16 03:27:35;;;;;;;5.37;1.93;;;;;;;;;;4989190;28;20211;-75
2023/05/16 03:30:01;;;;;;;9.77;3.37;;;;;;;;;;4989865;28;20218;-74
2023/05/16 03:32:26;;;;;;;6.63;2.77;;;;;;;;;;4991194;28;20290;-75
2023/05/16 03:34:51;;;;;;;7.10;1.97;;;;;;;;;;4992229;28;20203;-75
2023/05/16 03:37:16;;;;;;;7.10;2.73;;;;;;;;;;4992390;28;20214;-75
2023/05/16 03:39:42;;;;;;;8.67;2.20;;;;;;;;;;4991942;28;20222;-75
2023/05/16 03:42:07;;;;;;;11.13;2.30;;;;;;;;;;4990888;28;20229;-75
2023/05/16 03:44:32;;;;;;;8.37;2.53;;;;;;;;;;4993947;28;20574;-75
2023/05/16 03:46:57;;;;;;;8.53;3.60;;;;;;;;;;4993684;28;20244;-74
2023/05/16 03:49:27;;;;;;;6.90;3.20;;;;;;;;;;4993812;28;20567;-74
2023/05/16 03:51:52;;;;;;;10.97;3.23;;;;;;;;;;4995302;28;20289;-74
2023/05/16 03:54:17;;;;;;;17.50;3.70;;;;;;;;;;4992816;28;20194;-74
2023/05/16 03:56:43;;;;;;;8.07;3.50;;;;;;;;;;4991376;28;20194;-74
2023/05/16 03:59:08;;;;;;;5.90;2.27;;;;;;;;;;4993679;28;20277;-74
2023/05/16 04:01:33;;;;;;;9.17;3.20;;;;;;;;;;4991995;28;20184;-75
2023/05/16 04:03:58;;;;;;;10.00;3.40;;;;;;;;;;4991845;28;20211;-74
2023/05/16 04:06:24;;;;;;;11.17;2.93;;;;;;;;;;4991824;28;20244;-75
2023/05/16 04:08:49;;;;;;;9.13;2.60;;;;;;;;;;4990754;28;21738;-75
2023/05/16 04:11:14;;;;;;;4.77;2.37;;;;;;;;;;4991719;28;20210;-75
2023/05/16 04:13:40;;;;;;;6.07;2.67;;;;;;;;;;4988693;28;20214;-75
2023/05/16 04:16:05;;;;;;;7.13;2.70;;;;;;;;;;4990555;28;20214;-75
2023/05/16 04:18:30;;;;;;;11.43;3.10;;;;;;;;;;4989139;28;20183;-75
2023/05/16 04:20:56;;;;;;;8.23;3.63;;;;;;;;;;4988131;28;20182;-75
2023/05/16 04:23:21;;;;;;;11.40;3.30;;;;;;;;;;4988083;28;20225;-75
2023/05/16 04:25:46;;;;;;;9.83;3.07;;;;;;;;;;4990004;28;20230;-75
2023/05/16 04:28:12;;;;;;;7.67;2.57;;;;;;;;;;5003716;28;20175;-75
2023/05/16 04:30:37;;;;;;;13.53;2.63;;;;;;;;;;4991135;28;20277;-75
2023/05/16 04:33:02;;;;;;;7.70;2.50;;;;;;;;;;4989470;28;20234;-75
2023/05/16 04:35:28;;;;;;;3.87;2.10;;;;;;;;;;4990580;28;20205;-75
2023/05/16 04:37:53;;;;;;;6.97;2.20;;;;;;;;;;4991325;28;20187;-75
2023/05/16 04:40:18;;;;;;;8.53;2.67;;;;;;;;;;4991879;28;20187;-75
2023/05/16 04:42:43;;;;;;;8.13;4.13;;;;;;;;;;4990253;28;20198;-75
2023/05/16 04:45:13;;;;;;;7.97;3.00;;;;;;;;;;4990270;28;20249;-75
2023/05/16 04:47:38;;;;;;;5.87;2.50;;;;;;;;;;4990852;28;20665;-74
2023/05/16 04:50:05;;;;;;;11.27;2.67;;;;;;;;;;4991211;28;20206;-75
2023/05/16 04:52:30;;;;;;;6.43;2.33;;;;;;;;;;4991770;28;20207;-74
2023/05/16 04:54:55;;;;;;;7.43;2.47;;;;;;;;;;4992219;28;20175;-74
2023/05/16 04:57:20;;;;;;;7.83;2.60;;;;;;;;;;4990463;28;20926;-74
2023/05/16 04:59:45;;;;;;;10.90;2.57;;;;;;;;;;4992886;28;20195;-74
2023/05/16 05:02:11;;;;;;;3.50;2.10;;;;;;;;;;4992225;28;20213;-74
2023/05/16 05:04:36;;;;;;;4.87;1.60;;;;;;;;;;4992954;28;20190;-74
2023/05/16 05:07:02;;;;;;;7.83;2.60;;;;;;;;;;5013025;28;20223;-74
2023/05/16 05:09:27;;;;;;;7.07;2.03;;;;;;;;;;5013919;28;20278;-73
2023/05/16 05:11:52;;;;;;;3.90;1.83;;;;;;;;;;4995872;28;20214;-73
2023/05/16 05:14:17;;;;;;;5.20;2.00;;;;;;;;;;4993206;28;20187;-75
2023/05/16 05:16:43;;;;;;;4.20;1.93;;;;;;;;;;4993156;28;20188;-74
2023/05/16 05:19:08;;;;;;;8.87;2.33;;;;;;;;;;4993954;28;20207;-73
2023/05/16 05:21:33;;;;;;;8.20;2.73;;;;;;;;;;4990757;28;20175;-76
2023/05/16 05:23:59;;;;;;;6.57;2.10;;;;;;;;;;4992138;28;20273;-75
2023/05/16 05:26:25;;;;;;;4.57;2.10;;;;;;;;;;4990400;28;20268;-76
2023/05/16 05:28:50;;;;;;;5.23;1.53;;;;;;;;;;4991291;28;20605;-76
2023/05/16 05:31:15;;;;;;;5.87;2.23;;;;;;;;;;4990798;28;20322;-75
2023/05/16 05:33:41;;;;;;;5.73;2.47;;;;;;;;;;5002424;28;20739;-75
2023/05/16 05:36:06;;;;;;;4.00;2.10;;;;;;;;;;4990721;28;20191;-76
2023/05/16 05:38:32;;;;;;;6.30;1.83;;;;;;;;;;4990442;28;20638;-76
2023/05/16 05:40:57;;;;;;;9.00;2.07;;;;;;;;;;4991227;28;20175;-76
2023/05/16 05:43:22;;;;;;;9.47;2.13;;;;;;;;;;4991709;28;20205;-75
2023/05/16 05:45:47;;;;;;;8.37;2.43;;;;;;;;;;4990799;28;20214;-76
2023/05/16 05:48:13;;;;;;;9.53;2.03;;;;;;;;;;4994464;28;20209;-76
2023/05/16 05:50:38;;;;;;;7.47;2.07;;;;;;;;;;4991760;28;20189;-76
2023/05/16 05:53:03;;;;;;;4.93;1.93;;;;;;;;;;4991454;28;20697;-75
2023/05/16 05:55:28;;;;;;;7.00;2.63;;;;;;;;;;4990882;28;20651;-75
2023/05/16 05:57:53;;;;;;;5.97;1.80;;;;;;;;;;4992267;28;20191;-75
2023/05/16 06:00:19;;;;;;;7.00;2.67;;;;;;;;;;4991301;28;20195;-75
2023/05/16 06:02:46;;;;;;;8.93;2.53;;;;;;;;;;4989686;28;20210;-75
2023/05/16 06:05:11;;;;;;;6.23;1.30;;;;;;;;;;4990227;28;20190;-75
2023/05/16 06:07:36;;;;;;;7.80;1.60;;;;;;;;;;4995125;28;20237;-76
2023/05/16 06:10:04;;;;;;;4.93;1.60;;;;;;;;;;4992903;28;20175;-75
2023/05/16 06:12:29;;;;;;;5.93;2.20;;;;;;;;;;5003329;22;20296;-68
2023/05/16 06:14:55;;;;;;;10.83;1.90;;;;;;;;;;4975140;28;20588;-68
2023/05/16 06:17:20;;;;;;;3.87;1.13;;;;;;;;;;4974106;28;20186;-68
2023/05/16 06:19:45;;;;;;;6.23;1.50;;;;;;;;;;4976688;28;20194;-68
2023/05/16 06:22:11;;;;;;;7.80;1.67;;;;;;;;;;4976947;28;21196;-68
2023/05/16 06:24:36;;;;;;;4.73;1.23;;;;;;;;;;4971765;28;20392;-68
2023/05/16 06:27:01;;;;;;;12.07;1.38;;;;;;;;;;4970390;28;20584;-68
2023/05/16 06:29:26;;;;;;;2.53;1.20;;;;;;;;;;4976591;28;20183;-68
2023/05/16 06:31:52;;;;;;;3.00;1.00;;;;;;;;;;4976206;28;20213;-68
2023/05/16 06:34:17;;;;;;;7.47;1.30;;;;;;;;;;4975296;28;20171;-67
2023/05/16 06:36:43;;;;;;;6.35;1.15;;;;;;;;;;4975945;28;20548;-68
2023/05/16 06:39:08;;;;;;;6.32;1.40;;;;;;;;;;4974254;28;20190;-68
2023/05/16 06:41:33;;;;;;;3.78;1.23;;;;;;;;;;4975734;28;20222;-68
2023/05/16 06:43:59;;;;;;;5.55;1.33;;;;;;;;;;4972451;28;20246;-68
2023/05/16 06:46:25;;;;;;;5.18;1.30;;;;;;;;;;4977423;28;20207;-68
2023/05/16 06:48:50;;;;;;;7.40;0.90;;;;;;;;;;4974518;28;20175;-68
2023/05/16 06:51:15;;;;;;;8.18;1.42;;;;;;;;;;4976032;28;20911;-68
2023/05/16 06:53:40;;;;;;;8.40;1.27;;;;;;;;;;4974868;28;20197;-68
2023/05/16 06:56:06;;;;;;;3.63;0.90;;;;;;;;;;4975433;28;20212;-67
2023/05/16 06:58:31;;;;;;;6.07;1.55;;;;;;;;;;4974594;28;20870;-68
2023/05/16 07:00:56;;;;;;;5.55;0.88;;;;;;;;;;4975472;28;20611;-68
2023/05/16 07:03:22;;;;;;;7.93;1.42;;;;;;;;;;4974830;28;20579;-68
2023/05/16 07:05:47;;;;;;;2.78;1.02;;;;;;;;;;4980555;28;20179;-68
2023/05/16 07:08:12;;;;;;;2.83;1.63;;;;;;;;;;4980395;28;20183;-68
2023/05/16 07:10:40;;;;;;;5.88;1.70;;;;;;;;;;4979867;28;20637;-68
2023/05/16 07:13:06;;;;;;;5.80;1.40;;;;;;;;;;4978585;28;20846;-68
2023/05/16 07:15:31;;;;;;;4.45;0.93;;;;;;;;;;4979016;28;20178;-68
2023/05/16 07:17:56;;;;;;;7.50;1.38;;;;;;;;;;4987523;28;20183;-68
2023/05/16 07:20:22;;;;;;;3.22;1.02;;;;;;;;;;4978274;28;20187;-68
2023/05/16 07:22:47;;;;;;;2.80;0.90;;;;;;;;;;4979152;28;20212;-68
2023/05/16 07:25:13;;;;;;;5.47;1.20;;;;;;;;;;4979276;28;20194;-68
2023/05/16 07:27:43;;;;;;;4.15;1.00;;;;;;;;;;4979310;28;20223;-68
2023/05/16 07:30:09;;;;;;;6.47;1.00;;;;;;;;;;4977920;28;20266;-68
2023/05/16 07:32:34;;;;;;;4.53;1.48;;;;;;;;;;4979200;28;21839;-68
2023/05/16 07:35:00;;;;;;;6.25;0.90;;;;;;;;;;4979493;28;21719;-68
2023/05/16 07:37:25;;;;;;;3.45;1.23;;;;;;;;;;4978109;28;20691;-68
2023/05/16 07:39:50;;;;;;;4.75;1.10;;;;;;;;;;4980238;28;20567;-68
2023/05/16 07:42:15;;;;;;;4.68;1.08;;;;;;;;;;4978021;28;20269;-68
2023/05/16 07:44:41;;;;;;;8.05;1.35;;;;;;;;;;4980754;28;20350;-68
2023/05/16 07:47:06;;;;;;;4.80;0.82;;;;;;;;;;4981450;28;20198;-68
2023/05/16 07:49:31;;;;;;;6.40;0.77;;;;;;;;;;4978800;28;20696;-69
2023/05/16 07:51:56;;;;;;;1.42;0.73;;;;;;;;;;4978228;28;20286;-68
2023/05/16 07:54:22;;;;;;;3.17;0.93;;;;;;;;;;4978323;28;20202;-68
2023/05/16 07:56:47;;;;;;;7.85;1.25;;;;;;;;;;4978484;28;20294;-68
2023/05/16 07:59:13;;;;;;;4.43;0.82;;;;;;;;;;4978690;28;20261;-69
2023/05/16 08:01:38;;;;;;;2.28;0.85;;;;;;;;;;4978033;28;20229;-68
2023/05/16 08:04:03;;;;;;;2.22;0.73;;;;;;;;;;4978639;28;20191;-68
2023/05/16 08:06:28;;;;;;;3.25;1.00;;;;;;;;;;4979857;28;20264;-68
2023/05/16 08:08:54;;;;;;;3.38;0.80;;;;;;;;;;4980791;28;20191;-68
2023/05/16 08:11:21;;;;;;;5.40;1.17;;;;;;;;;;4978851;28;20183;-68
2023/05/16 08:13:47;;;;;;;4.85;1.08;;;;;;;;;;4978191;28;20214;-68
2023/05/16 08:16:12;;;;;;;4.35;0.82;;;;;;;;;;4977670;28;20183;-69
2023/05/16 08:18:38;;;;;;;5.88;0.98;;;;;;;;;;4979018;28;20581;-69
2023/05/16 08:21:03;;;;;;;2.65;0.70;;;;;;;;;;4979966;28;20175;-69
2023/05/16 08:23:28;;;;;;;2.47;0.63;;;;;;;;;;4977425;28;20294;-69
2023/05/16 08:25:53;;;;;;;2.78;0.80;;;;;;;;;;4979959;28;20203;-69
2023/05/16 08:28:19;;;;;;;6.45;1.00;;;;;;;;;;4982238;28;20168;-69
2023/05/16 08:30:44;;;;;;;3.60;0.75;;;;;;;;;;4979687;28;20538;-69
2023/05/16 08:33:09;;;;;;;1.70;1.00;;;;;;;;;;4978242;28;20706;-69
2023/05/16 08:35:34;;;;;;;1.67;0.75;;;;;;;;;;4979515;28;21200;-69
2023/05/16 08:38:01;;;;;;;2.72;0.85;;;;;;;;;;4979171;28;22033;-68
2023/05/16 08:40:27;;;;;;;2.25;1.00;;;;;;;;;;4978859;28;20187;-69
2023/05/16 08:42:52;;;;;;;5.20;0.93;;;;;;;;;;4980475;28;20207;-69
2023/05/16 08:45:18;;;;;;;6.60;1.00;;;;;;;;;;4980303;28;20182;-69
2023/05/16 08:47:44;;;;;;;4.10;0.85;;;;;;;;;;4979588;28;20310;-69
2023/05/16 08:50:09;;;;;;;2.03;0.90;;;;;;;;;;4977515;28;20187;-67
2023/05/16 08:52:36;;;;;;;4.35;1.02;;;;;;;;;;4977312;28;20640;-68
2023/05/16 08:55:06;;;;;;;2.63;0.80;;;;;;;;;;4978613;28;20175;-69
2023/05/16 08:57:32;;;;;;;2.97;0.82;;;;;;;;;;4978226;28;20186;-68
2023/05/16 08:59:58;;;;;;;4.93;1.30;;;;;;;;;;4980727;28;20176;-68
2023/05/16 09:02:24;;;;;;;10.70;1.60;;;;;;;;;;4978051;28;20191;-69
2023/05/16 09:04:49;;;;;;;3.15;0.80;;;;;;;;;;4976666;28;20190;-68
2023/05/16 09:07:14;;;;;;;5.57;0.75;;;;;;;;;;4978896;28;20203;-67
2023/05/16 09:09:40;;;;;;;5.70;1.13;;;;;;;;;;4980761;28;20251;-68
2023/05/16 09:12:06;;;;;;;6.35;0.73;;;;;;;;;;4977287;28;21169;-68
2023/05/16 09:14:31;;;;;;;3.67;0.85;;;;;;;;;;4978325;28;20183;-68
2023/05/16 09:17:03;;;;;;;7.03;1.17;;;;;;;;;;4977457;28;20656;-68
2023/05/16 09:19:36;;;;;;;4.80;0.70;;;;;;;;;;4977999;28;20179;-68
2023/05/16 09:22:02;;;;;;;3.88;1.02;;;;;;;;;;4978281;28;20199;-68
2023/05/16 09:24:28;;;;;;;2.83;0.60;;;;;;;;;;4977112;28;20186;-68
2023/05/16 09:26:53;;;;;;;3.88;0.85;;;;;;;;;;4977757;28;21254;-68
2023/05/16 09:29:18;;;;;;;4.80;0.90;;;;;;;;;;4976622;28;20218;-69
2023/05/16 09:31:44;;;;;;;4.07;0.80;;;;;;;;;;4988677;28;20570;-68
2023/05/16 09:34:12;;;;;;;3.47;0.60;;;;;;;;;;4976815;28;20184;-68
2023/05/16 09:36:38;;;;;;;2.40;0.75;;;;;;;;;;4976682;28;20179;-68
2023/05/16 09:39:04;;;;;;;4.50;1.02;;;;;;;;;;4977297;28;20180;-68
2023/05/16 09:41:33;;;;;;;2.70;0.68;;;;;;;;;;4988786;28;20542;-68
2023/05/16 09:44:02;;;;;;;5.57;1.08;;;;;;;;;;4991499;28;20684;-69
2023/05/16 09:46:27;;;;;;;1.38;0.60;;;;;;;;;;4991609;28;20203;-68
2023/05/16 09:48:53;;;;;;;2.40;0.60;;;;;;;;;;4990713;28;20548;-68
2023/05/16 09:51:20;;;;;;;2.88;0.95;;;;;;;;;;4991700;28;20195;-68
2023/05/16 09:53:46;;;;;;;1.50;0.70;;;;;;;;;;4990986;28;20682;-69
2023/05/16 09:56:12;;;;;;;4.28;0.70;;;;;;;;;;4980892;28;21321;-69
2023/05/16 09:58:38;;;;;;;2.25;0.80;;;;;;;;;;4975692;28;20251;-68
2023/05/16 10:01:04;;;;;;;5.18;0.95;;;;;;;;;;4978210;28;20378;-69
2023/05/16 10:03:30;;;;;;;3.70;0.80;;;;;;;;;;4975073;28;20739;-69
2023/05/16 10:05:55;;;;;;;7.95;1.17;;;;;;;;;;4975257;28;20191;-69
2023/05/16 10:08:22;;;;;;;1.92;0.70;;;;;;;;;;4975354;28;20175;-69
2023/05/16 10:10:51;;;;;;;2.22;0.70;;;;;;;;;;4976050;28;20180;-69
2023/05/16 10:13:20;;;;;;;5.18;0.90;;;;;;;;;;4974583;28;20478;-69
2023/05/16 10:15:45;;;;;;;4.32;1.10;;;;;;;;;;4975200;28;20234;-68
2023/05/16 10:18:13;;;;;;;4.05;0.50;;;;;;;;;;4987657;28;20229;-69
2023/05/16 10:20:40;;;;;;;1.98;0.80;;;;;;;;;;4976501;28;20211;-69
2023/05/16 10:23:05;;;;;;;3.45;0.65;;;;;;;;;;4975862;28;20207;-68
2023/05/16 10:25:32;;;;;;;5.78;0.80;;;;;;;;;;4978565;28;20556;-68
2023/05/16 10:27:58;;;;;;;3.78;0.80;;;;;;;;;;4977015;28;20344;-68
2023/05/16 10:30:23;;;;;;;3.78;0.95;;;;;;;;;;4977832;28;20180;-68
2023/05/16 10:32:50;;;;;;;4.47;0.60;;;;;;;;;;4974030;28;20577;-68
2023/05/16 10:35:15;;;;;;;4.47;0.88;;;;;;;;;;4975731;28;20179;-68
2023/05/16 10:37:41;;;;;;;2.85;0.75;;;;;;;;;;4975159;28;20945;-70
2023/05/16 10:40:07;;;;;;;1.90;0.47;;;;;;;;;;4977538;28;20669;-68
2023/05/16 10:42:32;;;;;;;5.78;0.75;;;;;;;;;;4980823;28;20674;-68
2023/05/16 10:45:15;;;;;;;3.50;0.52;;;;;;;;;;4983611;28;20271;-68
2023/05/16 10:47:49;;;;;;;3.45;0.95;;;;;;;;;;4977512;28;20361;-68
2023/05/16 10:50:29;;;;;;;4.15;0.50;;;;;;;;;;4980743;28;20194;-69
2023/05/16 10:52:54;;;;;;;1.73;0.85;;;;;;;;;;4979325;28;20597;-69
2023/05/16 10:55:19;;;;;;;3.42;0.70;;;;;;;;;;4980736;28;20192;-69
2023/05/16 10:57:44;;;;;;;3.35;1.70;;;;;;;;;;4979240;28;20286;-69
2023/05/16 11:00:20;;;;;;;8.13;1.15;;;;;;;;;;4980566;28;20272;-69
2023/05/16 11:02:45;;;;;;;3.17;0.90;;;;;;;;;;4979292;28;20403;-69
2023/05/16 11:05:12;;;;;;;3.70;0.95;;;;;;;;;;4979668;28;20187;-69
2023/05/16 11:07:37;;;;;;;4.03;0.90;;;;;;;;;;4978427;28;20215;-69
2023/05/16 11:10:08;;;;;;;4.20;0.95;;;;;;;;;;4982238;28;20185;-69
2023/05/16 11:12:44;;;;;;;5.63;1.20;;;;;;;;;;4979501;28;20217;-69
2023/05/16 11:15:22;;;;;;;2.08;0.63;;;;;;;;;;4980431;28;20358;-69
2023/05/16 11:17:47;;;;;;;5.07;0.80;;;;;;;;;;4980913;28;20627;-69
2023/05/16 11:20:26;;;;;;;5.13;1.00;;;;;;;;;;4972637;28;20191;-69
2023/05/16 11:23:11;;;;;;;3.47;0.98;;;;;;;;;;4978698;28;20223;-69
2023/05/16 11:25:39;;;;;;;2.33;0.80;;;;;;;;;;4978326;28;20198;-69
2023/05/16 11:28:06;;;;;;;4.40;0.60;;;;;;;;;;4978944;28;21798;-69
2023/05/16 11:30:31;;;;;;;1.30;0.50;;;;;;;;;;4979410;28;20195;-69
2023/05/16 11:32:57;;;;;;;2.92;0.65;;;;;;;;;;4978525;28;20230;-69
2023/05/16 11:35:22;;;;;;;4.30;0.55;;;;;;;;;;4977355;28;20183;-69
2023/05/16 11:37:47;;;;;;;2.83;0.80;;;;;;;;;;4977183;28;20179;-68
2023/05/16 11:40:13;;;;;;;2.47;0.65;;;;;;;;;;4978156;28;20538;-68
2023/05/16 11:42:42;;;;;;;4.15;0.95;;;;;;;;;;4978765;28;20719;-69
2023/05/16 11:45:09;;;;;;;1.48;0.43;;;;;;;;;;4982632;28;20195;-69
2023/05/16 11:47:43;;;;;;;2.03;0.70;;;;;;;;;;4979175;28;20578;-69
2023/05/16 11:50:12;;;;;;;4.38;0.80;;;;;;;;;;4969245;28;20642;-69
2023/05/16 11:52:37;;;;;;;3.50;0.70;;;;;;;;;;4979581;28;20354;-69
2023/05/16 11:55:03;;;;;;;3.22;0.60;;;;;;;;;;4978917;28;20178;-69
2023/05/16 11:57:28;;;;;;;2.35;0.90;;;;;;;;;;4977738;28;20183;-68
2023/05/16 11:59:54;;;;;;;2.70;0.82;;;;;;;;;;4978438;28;20180;-68
2023/05/16 12:02:19;;;;;;;2.75;0.70;;;;;;;;;;4978180;28;20234;-67
2023/05/16 12:04:45;;;;;;;2.70;0.77;;;;;;;;;;4977300;28;20184;-68
2023/05/16 12:07:10;;;;;;;2.25;1.10;;;;;;;;;;4978061;28;20736;-69
2023/05/16 12:09:35;;;;;;;2.20;0.43;;;;;;;;;;4976816;28;20373;-68
2023/05/16 12:14:33;;;;;;;1.83;0.77;;;;;;;;;;4991186;28;20488;-76
2023/05/16 12:16:58;;;;;;;2.70;0.50;;;;;;;;;;4998029;28;20183;-74
2023/05/16 12:19:24;;;;;;;2.85;0.68;;;;;;;;;;4994359;28;20665;-73
2023/05/16 12:21:53;;;;;;;2.42;0.75;;;;;;;;;;4993061;28;20233;-73
2023/05/16 12:24:18;;;;;;;1.75;0.60;;;;;;;;;;4975591;28;20222;-76
2023/05/16 12:26:43;;;;;;;3.00;0.43;;;;;;;;;;4971825;28;20303;-74
2023/05/16 12:29:10;;;;;;;6.03;0.95;;;;;;;;;;4974786;28;20183;-74
2023/05/16 12:31:36;;;;;;;4.03;0.60;;;;;;;;;;4972919;28;20198;-74
2023/05/16 12:34:01;;;;;;;4.60;0.40;;;;;;;;;;4974048;28;21875;-75
2023/05/16 12:36:30;;;;;;;4.28;0.68;;;;;;;;;;4977140;28;20195;-74
2023/05/16 12:38:58;;;;;;;2.60;0.65;;;;;;;;;;4988714;28;20248;-74
2023/05/16 12:41:24;;;;;;;2.70;0.57;;;;;;;;;;4974097;28;21143;-75
2023/05/16 12:43:49;;;;;;;5.00;1.50;;;;;;;;;;4976986;28;20199;-74
2023/05/16 12:46:14;;;;;;;2.75;0.77;;;;;;;;;;4978078;28;20187;-75
2023/05/16 12:48:41;;;;;;;1.92;0.50;;;;;;;;;;4989804;28;20958;-74
2023/05/16 12:51:17;;;;;;;2.72;1.02;;;;;;;;;;4972634;28;20743;-74
2023/05/16 12:53:43;;;;;;;4.68;0.80;;;;;;;;;;4971832;28;20207;-74
2023/05/16 12:56:08;;;;;;;1.20;0.40;;;;;;;;;;4974276;28;20212;-74
2023/05/16 12:58:33;;;;;;;1.95;0.68;;;;;;;;;;4972137;28;20704;-74
2023/05/16 13:00:58;;;;;;;4.28;1.02;;;;;;;;;;4987693;28;20207;-74
2023/05/16 13:03:23;;;;;;;4.97;0.60;;;;;;;;;;4970755;28;20214;-75
2023/05/16 13:05:49;;;;;;;7.00;0.93;;;;;;;;;;4970360;28;20180;-75
2023/05/16 13:08:14;;;;;;;2.78;0.52;;;;;;;;;;4971610;28;20238;-75
2023/05/16 13:10:40;;;;;;;3.08;0.70;;;;;;;;;;4986125;28;20171;-75
2023/05/16 13:13:05;;;;;;;3.00;0.90;;;;;;;;;;4976453;28;20211;-74
2023/05/16 13:15:30;;;;;;;3.38;1.33;;;;;;;;;;4972802;28;20183;-75
2023/05/16 13:17:55;;;;;;;2.13;0.50;;;;;;;;;;4976358;28;20188;-75
2023/05/16 13:20:20;;;;;;;2.22;0.38;;;;;;;;;;4973251;28;20192;-75
2023/05/16 13:22:46;;;;;;;2.97;0.68;;;;;;;;;;4972011;28;20230;-74
2023/05/16 13:25:11;;;;;;;3.55;0.50;;;;;;;;;;4974795;28;20185;-75
2023/05/16 13:27:36;;;;;;;2.10;0.82;;;;;;;;;;4975141;28;20207;-75
2023/05/16 13:30:03;;;;;;;3.17;0.70;;;;;;;;;;4974328;28;20188;-74
2023/05/16 13:32:28;;;;;;;5.25;1.08;;;;;;;;;;4972958;28;20265;-75
2023/05/16 13:34:53;;;;;;;3.72;0.57;;;;;;;;;;4970994;28;20183;-74
2023/05/16 13:37:19;;;;;;;1.15;0.52;;;;;;;;;;4972046;28;20191;-74
2023/05/16 13:39:44;;;;;;;2.80;0.50;;;;;;;;;;4971586;28;20868;-74
2023/05/16 13:42:09;;;;;;;1.20;0.30;;;;;;;;;;4971884;28;20495;-75
2023/05/16 13:44:35;;;;;;;2.38;0.85;;;;;;;;;;4974606;28;20219;-74
2023/05/16 13:47:00;;;;;;;4.82;1.02;;;;;;;;;;4992016;28;20274;-74
2023/05/16 13:49:25;;;;;;;1.42;0.55;;;;;;;;;;4987946;28;20187;-74
2023/05/16 13:51:51;;;;;;;1.73;0.65;;;;;;;;;;4972775;28;20184;-75
2023/05/16 13:54:16;;;;;;;1.13;0.68;;;;;;;;;;4973390;28;20241;-74
2023/05/16 13:56:41;;;;;;;6.35;0.60;;;;;;;;;;4973242;28;20190;-75
2023/05/16 13:59:07;;;;;;;2.33;0.50;;;;;;;;;;4972517;28;20196;-74
2023/05/16 14:01:33;;;;;;;2.63;0.93;;;;;;;;;;4987991;28;20322;-74
2023/05/16 14:03:58;;;;;;;3.58;0.50;;;;;;;;;;4971581;28;20701;-75
2023/05/16 14:06:23;;;;;;;4.65;0.70;;;;;;;;;;4971450;28;20876;-74
2023/05/16 14:08:48;;;;;;;8.73;0.82;;;;;;;;;;4971018;28;20568;-75
2023/05/16 14:11:13;;;;;;;1.58;0.60;;;;;;;;;;4972713;28;20271;-74
2023/05/16 14:13:39;;;;;;;3.23;0.93;;;;;;;;;;4972648;28;20592;-75
2023/05/16 14:16:05;;;;;;;1.77;0.65;;;;;;;;;;4972330;28;20433;-75
2023/05/16 14:18:30;;;;;;;4.32;1.08;;;;;;;;;;4974392;28;20509;-74
2023/05/16 14:20:55;;;;;;;2.38;0.50;;;;;;;;;;4971258;28;20303;-74
2023/05/16 14:23:20;;;;;;;4.75;0.60;;;;;;;;;;4971092;28;20871;-74
2023/05/16 14:25:46;;;;;;;5.35;0.90;;;;;;;;;;4975664;28;20497;-75
2023/05/16 14:28:11;;;;;;;5.40;0.65;;;;;;;;;;4972399;28;20321;-74
2023/05/16 14:30:36;;;;;;;2.60;0.60;;;;;;;;;;4971332;28;20740;-74
2023/05/16 14:33:02;;;;;;;3.63;0.82;;;;;;;;;;4969683;28;20198;-74
2023/05/16 14:35:28;;;;;;;2.03;0.60;;;;;;;;;;4974055;28;20191;-74
2023/05/16 14:37:53;;;;;;;2.88;0.60;;;;;;;;;;4973820;28;20718;-74